Time;durP1;ratioP1;P1;durP2;ratioP2;P2;SDS_P1;SDS_P2;PMS_P1;PMS_P2;Temp;Humidity;BMP_temperature;BMP_pressure;BME280_temperature;BME280_humidity;BME280_pressure;Samples;Min_cycle;Max_cycle;Signal;HPM_P1;HPM_P2
2023/11/12 00:01:58;;;;;;;2.05;1.02;;;6.80;99.90;;;;;;4965365;28;20019;-89
2023/11/12 00:04:24;;;;;;;3.28;1.05;;;6.70;99.90;;;;;;4994322;28;20037;-86
2023/11/12 00:06:50;;;;;;;2.45;1.23;;;6.70;99.90;;;;;;4996943;28;20106;-87
2023/11/12 00:09:16;;;;;;;2.92;1.15;;;6.70;99.90;;;;;;4981602;28;20035;-85
2023/11/12 00:11:43;;;;;;;1.83;0.80;;;6.70;99.90;;;;;;4966259;28;20061;-85
2023/11/12 00:14:09;;;;;;;1.95;0.98;;;6.80;99.90;;;;;;4999793;28;20035;-86
2023/11/12 00:16:35;;;;;;;2.20;1.10;;;6.70;99.90;;;;;;4980426;28;20042;-86
2023/11/12 00:19:03;;;;;;;2.75;1.40;;;6.80;99.90;;;;;;4998130;28;20118;-87
2023/11/12 00:21:30;;;;;;;2.42;0.90;;;6.70;99.90;;;;;;4980909;28;20030;-86
2023/11/12 00:23:55;;;;;;;2.13;1.20;;;6.70;99.90;;;;;;4968581;28;20495;-86
2023/11/12 00:26:22;;;;;;;2.42;1.13;;;6.70;99.90;;;;;;4967534;28;20053;-84
2023/11/12 00:28:50;;;;;;;3.30;1.35;;;6.70;99.90;;;;;;4996523;28;20058;-86
2023/11/12 00:31:16;;;;;;;3.42;1.08;;;6.60;99.90;;;;;;4965938;28;20030;-87
2023/11/12 00:33:42;;;;;;;2.63;1.52;;;6.70;99.90;;;;;;4984183;28;20046;-84
2023/11/12 00:36:08;;;;;;;2.72;1.48;;;6.60;99.90;;;;;;4997289;28;20395;-84
2023/11/12 00:38:35;;;;;;;3.17;1.30;;;6.60;99.90;;;;;;4984632;28;20031;-84
2023/11/12 00:41:00;;;;;;;2.20;1.33;;;6.60;99.90;;;;;;4997248;28;20035;-86
2023/11/12 00:43:29;;;;;;;3.10;1.65;;;6.60;99.90;;;;;;4985501;28;20034;-84
2023/11/12 00:46:02;;;;;;;3.30;1.83;;;6.60;99.90;;;;;;4969058;28;20126;-86
2023/11/12 00:48:28;;;;;;;2.88;1.42;;;6.60;99.90;;;;;;4995635;28;20065;-89
2023/11/12 00:50:54;;;;;;;2.92;1.77;;;6.60;99.90;;;;;;4990279;28;20487;-84
2023/11/12 00:53:20;;;;;;;3.55;2.30;;;6.60;99.90;;;;;;4989258;28;20062;-85
2023/11/12 00:55:46;;;;;;;4.22;2.30;;;6.60;99.90;;;;;;4986750;28;20125;-84
2023/11/12 00:58:11;;;;;;;3.78;2.33;;;6.60;99.90;;;;;;4985906;28;20550;-85
2023/11/12 01:00:41;;;;;;;2.72;1.83;;;6.60;99.90;;;;;;4972419;28;20081;-85
2023/11/12 01:03:08;;;;;;;4.82;2.22;;;6.60;99.90;;;;;;4997167;28;20034;-86
2023/11/12 01:05:34;;;;;;;3.78;2.28;;;6.60;99.90;;;;;;4989297;28;20121;-85
2023/11/12 01:08:00;;;;;;;4.35;3.03;;;6.50;99.90;;;;;;4985785;28;20558;-85
2023/11/12 01:10:26;;;;;;;3.47;2.03;;;6.60;99.90;;;;;;4970554;28;20034;-86
2023/11/12 01:12:52;;;;;;;4.05;2.88;;;6.50;99.90;;;;;;5001645;28;20042;-85
2023/11/12 01:15:18;;;;;;;4.25;3.00;;;6.50;99.90;;;;;;4969037;28;20022;-89
2023/11/12 01:17:47;;;;;;;6.30;2.22;;;6.50;99.90;;;;;;4990540;28;20030;-88
2023/11/12 01:20:13;;;;;;;5.07;3.42;;;6.50;99.90;;;;;;4983302;28;20041;-86
2023/11/12 01:22:39;;;;;;;6.25;3.17;;;6.50;99.90;;;;;;4985734;28;20037;-87
2023/11/12 01:25:05;;;;;;;4.50;3.08;;;6.50;99.90;;;;;;5000207;28;20023;-84
2023/11/12 01:27:31;;;;;;;6.47;3.50;;;6.50;99.90;;;;;;4988780;28;20042;-87
2023/11/12 01:29:57;;;;;;;5.32;3.28;;;6.40;99.90;;;;;;4970611;28;20442;-87
2023/11/12 01:32:23;;;;;;;4.72;3.15;;;6.40;99.90;;;;;;4970841;28;20126;-89
2023/11/12 01:34:48;;;;;;;4.78;3.17;;;6.40;99.90;;;;;;4969825;28;20498;-85
2023/11/12 01:37:14;;;;;;;5.88;3.97;;;6.30;99.90;;;;;;4987887;28;20038;-86
2023/11/12 01:39:40;;;;;;;5.15;3.67;;;6.30;99.90;;;;;;4973139;28;20057;-88
2023/11/12 01:42:11;;;;;;;7.00;4.28;;;6.20;99.90;;;;;;4969466;28;20532;-87
2023/11/12 01:44:37;;;;;;;5.00;3.80;;;6.20;99.90;;;;;;4968948;28;20041;-88
2023/11/12 01:47:04;;;;;;;7.25;4.60;;;6.10;99.90;;;;;;4987659;28;20077;-90
2023/11/12 01:49:35;;;;;;;6.57;4.95;;;6.10;99.90;;;;;;4984458;28;20042;-84
2023/11/12 01:52:03;;;;;;;7.55;5.28;;;6.00;99.90;;;;;;4982030;28;20086;-89
2023/11/12 01:54:31;;;;;;;8.32;5.38;;;6.00;99.90;;;;;;4971651;28;20026;-87
2023/11/12 01:56:57;;;;;;;6.40;5.07;;;5.90;99.90;;;;;;4986139;28;20039;-86
2023/11/12 01:59:23;;;;;;;8.23;5.72;;;5.90;99.90;;;;;;4999251;28;20022;-83
2023/11/12 02:01:52;;;;;;;7.45;5.63;;;5.90;99.90;;;;;;4981056;28;20057;-85
2023/11/12 02:04:18;;;;;;;7.13;6.05;;;5.90;99.90;;;;;;4968588;28;20440;-84
2023/11/12 02:06:44;;;;;;;6.72;5.20;;;5.80;99.90;;;;;;4984273;28;20034;-85
2023/11/12 02:09:10;;;;;;;8.40;5.97;;;5.80;99.90;;;;;;4972089;28;20176;-84
2023/11/12 02:11:38;;;;;;;9.30;6.03;;;5.70;99.90;;;;;;4982904;28;20423;-85
2023/11/12 02:14:06;;;;;;;5.70;4.15;;;5.70;99.90;;;;;;4983449;28;20081;-86
2023/11/12 02:16:32;;;;;;;8.57;5.85;;;5.60;99.90;;;;;;4968220;28;20367;-87
2023/11/12 02:18:58;;;;;;;7.22;4.95;;;5.60;99.90;;;;;;4970479;28;20022;-86
2023/11/12 02:21:25;;;;;;;8.15;5.35;;;5.60;99.90;;;;;;4969013;28;20394;-87
2023/11/12 02:23:51;;;;;;;6.53;5.15;;;5.60;99.90;;;;;;4998122;28;20066;-84
2023/11/12 02:26:17;;;;;;;9.68;5.68;;;5.50;99.90;;;;;;4968080;28;20049;-87
2023/11/12 02:28:42;;;;;;;9.73;6.28;;;5.50;99.90;;;;;;4987498;28;20484;-85
2023/11/12 02:31:08;;;;;;;8.52;6.43;;;5.60;99.90;;;;;;4981861;28;20035;-83
2023/11/12 02:33:34;;;;;;;8.98;6.75;;;5.60;99.90;;;;;;4965492;28;20098;-86
2023/11/12 02:36:00;;;;;;;7.28;5.15;;;5.70;99.90;;;;;;4999546;28;20424;-86
2023/11/12 02:38:26;;;;;;;7.43;5.40;;;5.70;99.90;;;;;;4983514;28;20368;-84
2023/11/12 02:40:51;;;;;;;7.93;5.57;;;5.70;99.90;;;;;;4997221;28;20028;-88
2023/11/12 02:43:18;;;;;;;8.10;6.22;;;5.70;99.90;;;;;;4967953;28;20030;-85
2023/11/12 02:45:44;;;;;;;8.27;6.30;;;5.80;99.90;;;;;;4972185;28;20048;-87
2023/11/12 02:48:10;;;;;;;10.45;7.10;;;5.80;99.90;;;;;;4984667;28;20030;-84
2023/11/12 02:50:36;;;;;;;9.50;6.60;;;5.80;99.90;;;;;;4983935;28;20034;-84
2023/11/12 02:53:04;;;;;;;8.52;6.22;;;5.80;99.90;;;;;;4984011;28;20057;-83
2023/11/12 02:55:31;;;;;;;9.38;6.07;;;5.90;99.90;;;;;;4965225;28;20126;-84
2023/11/12 02:57:57;;;;;;;8.38;6.32;;;5.90;99.90;;;;;;4987619;28;20029;-84
2023/11/12 03:00:27;;;;;;;9.20;6.70;;;5.90;99.90;;;;;;4965435;28;20026;-86
2023/11/12 03:02:58;;;;;;;6.60;5.63;;;5.90;99.90;;;;;;4984693;28;20569;-86
2023/11/12 03:05:28;;;;;;;9.73;6.53;;;5.90;99.90;;;;;;4982495;28;20475;-85
2023/11/12 03:07:54;;;;;;;7.47;6.13;;;5.90;99.90;;;;;;4984642;28;20470;-84
2023/11/12 03:10:20;;;;;;;9.93;7.32;;;6.00;99.90;;;;;;4983983;28;20027;-86
2023/11/12 03:12:47;;;;;;;11.25;7.60;;;6.00;99.90;;;;;;4985526;28;20030;-87
2023/11/12 03:15:13;;;;;;;10.68;6.97;;;6.00;99.90;;;;;;4982836;28;20168;-86
2023/11/12 03:17:40;;;;;;;10.00;7.53;;;6.00;99.90;;;;;;4987643;28;20125;-89
2023/11/12 03:20:09;;;;;;;12.57;7.85;;;6.00;99.90;;;;;;4984282;28;20065;-86
2023/11/12 03:22:35;;;;;;;11.80;8.73;;;6.00;99.90;;;;;;4997252;28;20078;-88
2023/11/12 03:25:05;;;;;;;11.90;8.82;;;6.00;99.90;;;;;;4968106;28;20056;-84
2023/11/12 03:27:35;;;;;;;12.13;9.63;;;6.00;99.90;;;;;;4992917;28;20035;-84
2023/11/12 03:30:01;;;;;;;11.48;7.78;;;6.00;99.90;;;;;;4996490;28;20035;-87
2023/11/12 03:32:26;;;;;;;9.95;7.38;;;6.00;99.90;;;;;;4994049;28;20054;-91
2023/11/12 03:34:53;;;;;;;12.52;9.10;;;6.00;99.90;;;;;;4981188;28;20514;-88
2023/11/12 03:37:22;;;;;;;12.48;8.52;;;6.00;99.90;;;;;;4965580;28;20049;-82
2023/11/12 03:39:49;;;;;;;9.93;7.53;;;6.00;99.90;;;;;;4984446;28;20066;-86
2023/11/12 03:42:15;;;;;;;11.23;8.13;;;6.00;99.90;;;;;;4998861;28;20153;-86
2023/11/12 03:44:42;;;;;;;9.05;7.82;;;6.00;99.90;;;;;;4984351;28;20121;-84
2023/11/12 03:47:08;;;;;;;11.77;9.00;;;6.00;99.90;;;;;;4981610;28;20042;-83
2023/11/12 03:49:35;;;;;;;11.32;8.68;;;6.00;99.90;;;;;;4985025;28;20125;-85
2023/11/12 03:52:01;;;;;;;11.90;8.30;;;6.00;99.90;;;;;;4983330;28;20027;-84
2023/11/12 03:54:27;;;;;;;9.32;7.30;;;5.90;99.90;;;;;;4983096;28;20038;-83
2023/11/12 03:56:53;;;;;;;9.18;6.43;;;5.90;99.90;;;;;;4983057;28;20023;-85
2023/11/12 03:59:19;;;;;;;9.02;7.05;;;5.90;99.90;;;;;;4982503;28;20121;-84
2023/11/12 04:01:44;;;;;;;12.02;8.38;;;5.90;99.90;;;;;;4995275;28;20102;-84
2023/11/12 04:04:10;;;;;;;8.35;6.88;;;5.90;99.90;;;;;;4965656;28;20031;-88
2023/11/12 04:06:36;;;;;;;11.57;8.57;;;5.90;99.90;;;;;;4986724;28;20023;-88
2023/11/12 04:09:02;;;;;;;12.07;9.35;;;5.90;99.90;;;;;;4986489;28;20042;-87
2023/11/12 04:11:27;;;;;;;11.70;8.52;;;5.90;99.90;;;;;;4980639;28;20069;-88
2023/11/12 04:13:53;;;;;;;9.73;7.95;;;5.90;99.90;;;;;;4980636;28;20058;-85
2023/11/12 04:16:19;;;;;;;8.55;6.93;;;5.90;99.90;;;;;;4968231;28;20453;-83
2023/11/12 04:18:46;;;;;;;10.82;8.18;;;5.90;99.90;;;;;;4986518;28;20386;-86
2023/11/12 04:21:11;;;;;;;9.32;7.70;;;5.90;99.90;;;;;;4971288;28;20031;-84
2023/11/12 04:23:37;;;;;;;8.27;6.95;;;5.90;99.90;;;;;;4989039;28;20098;-87
2023/11/12 04:26:04;;;;;;;9.82;7.07;;;5.80;99.90;;;;;;4985617;28;20380;-86
2023/11/12 04:28:30;;;;;;;8.73;6.53;;;5.80;99.90;;;;;;4968963;28;20125;-83
2023/11/12 04:30:56;;;;;;;8.50;6.18;;;5.90;99.90;;;;;;4988127;28;20109;-85
2023/11/12 04:33:22;;;;;;;9.07;6.47;;;5.90;99.90;;;;;;4969920;28;20489;-86
2023/11/12 04:35:49;;;;;;;6.82;5.65;;;5.90;99.90;;;;;;4986092;28;20066;-85
2023/11/12 04:38:18;;;;;;;8.40;6.03;;;5.90;99.90;;;;;;4984004;28;20054;-86
2023/11/12 04:40:47;;;;;;;8.63;5.90;;;5.80;99.90;;;;;;4984517;28;20027;-84
2023/11/12 04:43:12;;;;;;;6.88;5.80;;;5.90;99.90;;;;;;4986897;28;20038;-86
2023/11/12 04:45:38;;;;;;;6.63;4.93;;;5.90;99.90;;;;;;4989971;28;20956;-88
2023/11/12 04:48:05;;;;;;;8.32;5.75;;;5.90;99.90;;;;;;4988738;28;20030;-84
2023/11/12 04:50:30;;;;;;;7.68;5.80;;;5.90;99.90;;;;;;4986347;28;20042;-87
2023/11/12 04:52:56;;;;;;;7.88;5.18;;;5.90;99.90;;;;;;4995848;28;20031;-84
2023/11/12 04:55:21;;;;;;;6.55;5.20;;;5.90;99.90;;;;;;4986168;28;20042;-84
2023/11/12 04:57:47;;;;;;;5.75;4.80;;;5.90;99.90;;;;;;4988575;28;20038;-89
2023/11/12 05:00:13;;;;;;;8.57;5.82;;;5.90;99.90;;;;;;4967674;28;20022;-85
2023/11/12 05:02:40;;;;;;;6.68;5.03;;;5.90;99.90;;;;;;4995518;28;20398;-87
2023/11/12 05:05:07;;;;;;;6.55;4.65;;;5.90;99.90;;;;;;4984435;28;20019;-84
2023/11/12 05:07:32;;;;;;;6.75;4.85;;;5.90;99.90;;;;;;4972871;28;20038;-86
2023/11/12 05:09:58;;;;;;;8.13;5.60;;;5.90;99.90;;;;;;4993910;28;20419;-85
2023/11/12 05:12:24;;;;;;;8.65;5.30;;;5.90;99.90;;;;;;4969230;28;20033;-84
2023/11/12 05:14:50;;;;;;;6.97;4.75;;;5.90;99.90;;;;;;4986185;28;20495;-83
2023/11/12 05:17:16;;;;;;;5.18;3.83;;;5.90;99.90;;;;;;4999758;28;20093;-88
2023/11/12 05:19:41;;;;;;;6.63;4.05;;;5.90;99.90;;;;;;4968477;28;20110;-86
2023/11/12 05:22:07;;;;;;;6.18;3.72;;;5.90;99.90;;;;;;5001157;28;20084;-85
2023/11/12 05:24:36;;;;;;;6.45;4.63;;;5.90;99.90;;;;;;4968257;28;20026;-89
2023/11/12 05:27:01;;;;;;;5.90;4.30;;;5.90;99.90;;;;;;4978282;28;20479;-86
2023/11/12 05:29:27;;;;;;;6.38;4.20;;;5.80;99.90;;;;;;4982539;28;20039;-86
2023/11/12 05:31:53;;;;;;;6.15;4.50;;;5.80;99.90;;;;;;4981870;28;20026;-84
2023/11/12 05:34:19;;;;;;;5.38;3.67;;;5.80;99.90;;;;;;4968589;28;20046;-83
2023/11/12 05:36:44;;;;;;;7.95;5.00;;;5.80;99.90;;;;;;4970116;28;20080;-82
2023/11/12 05:39:12;;;;;;;7.20;5.10;;;5.80;99.90;;;;;;4997495;28;20027;-86
2023/11/12 05:41:38;;;;;;;5.20;4.18;;;5.80;99.90;;;;;;4985869;28;20031;-84
2023/11/12 05:44:05;;;;;;;5.68;4.20;;;5.80;99.90;;;;;;4994256;28;20058;-84
2023/11/12 05:46:30;;;;;;;7.13;4.43;;;5.80;99.90;;;;;;4993004;28;20038;-85
2023/11/12 05:48:56;;;;;;;6.05;4.03;;;5.80;99.90;;;;;;4985033;28;20035;-86
2023/11/12 05:51:21;;;;;;;6.07;4.18;;;5.80;99.90;;;;;;4994012;28;20025;-84
2023/11/12 05:53:47;;;;;;;6.78;4.32;;;5.70;99.90;;;;;;4992205;28;20042;-83
2023/11/12 05:56:13;;;;;;;6.55;3.70;;;5.70;99.90;;;;;;4997365;28;20479;-86
2023/11/12 05:58:38;;;;;;;5.95;4.70;;;5.70;99.90;;;;;;4994451;28;20035;-83
2023/11/12 06:01:04;;;;;;;7.25;4.72;;;5.70;99.90;;;;;;4986788;28;20029;-83
2023/11/12 06:03:30;;;;;;;5.72;4.28;;;5.70;99.90;;;;;;4985741;28;20080;-85
2023/11/12 06:05:56;;;;;;;6.32;4.38;;;5.70;99.90;;;;;;4968032;28;20446;-86
2023/11/12 06:08:22;;;;;;;7.15;3.83;;;5.70;99.90;;;;;;4970947;28;20033;-85
2023/11/12 06:10:49;;;;;;;5.18;3.88;;;5.70;99.90;;;;;;4987849;28;20077;-86
2023/11/12 06:13:15;;;;;;;5.18;3.45;;;5.70;99.90;;;;;;4988972;28;20065;-86
2023/11/12 06:15:41;;;;;;;5.40;3.63;;;5.70;99.90;;;;;;4986488;28;20058;-85
2023/11/12 06:18:08;;;;;;;6.13;4.15;;;5.60;99.90;;;;;;4970874;28;20034;-85
2023/11/12 06:20:34;;;;;;;6.90;4.20;;;5.70;99.90;;;;;;4986344;28;20038;-87
2023/11/12 06:23:00;;;;;;;6.32;3.42;;;5.60;99.90;;;;;;4985373;28;20491;-86
2023/11/12 06:25:26;;;;;;;6.32;4.18;;;5.60;99.90;;;;;;4998551;28;20061;-87
2023/11/12 06:27:52;;;;;;;5.97;4.03;;;5.60;99.90;;;;;;4985475;28;20046;-86
2023/11/12 06:30:18;;;;;;;7.05;4.28;;;5.50;99.90;;;;;;4986131;28;20113;-86
2023/11/12 06:32:46;;;;;;;7.40;4.60;;;5.50;99.90;;;;;;4966493;28;20498;-85
2023/11/12 06:35:12;;;;;;;6.47;4.63;;;5.50;99.90;;;;;;4971551;28;20061;-87
2023/11/12 06:37:38;;;;;;;9.18;4.47;;;5.40;99.90;;;;;;4982795;28;20042;-86
2023/11/12 06:40:06;;;;;;;6.05;4.40;;;5.40;99.90;;;;;;4986100;28;20170;-87
2023/11/12 06:42:32;;;;;;;7.40;4.03;;;5.30;99.90;;;;;;4987385;28;20097;-86
2023/11/12 06:44:58;;;;;;;6.85;4.75;;;5.30;99.90;;;;;;4969621;28;20030;-87
2023/11/12 06:47:24;;;;;;;6.90;4.57;;;5.10;99.90;;;;;;4985142;28;20045;-86
2023/11/12 06:49:50;;;;;;;9.68;4.80;;;5.10;99.90;;;;;;4983762;28;20142;-86
2023/11/12 06:52:17;;;;;;;6.97;4.45;;;5.10;99.90;;;;;;4970258;28;20440;-86
2023/11/12 06:54:43;;;;;;;6.05;4.55;;;5.00;99.90;;;;;;4985200;28;20022;-86
2023/11/12 06:57:09;;;;;;;8.57;4.50;;;5.00;99.90;;;;;;4984910;28;20023;-86
2023/11/12 06:59:35;;;;;;;6.93;4.20;;;4.90;99.90;;;;;;4982372;28;20538;-86
2023/11/12 07:02:01;;;;;;;7.65;5.05;;;4.90;99.90;;;;;;4968644;28;20046;-86
2023/11/12 07:04:26;;;;;;;10.20;4.57;;;4.90;99.90;;;;;;4969415;28;20031;-85
2023/11/12 07:06:52;;;;;;;7.95;4.38;;;4.90;99.90;;;;;;4982295;28;20030;-85
2023/11/12 07:09:18;;;;;;;7.35;4.55;;;4.90;99.90;;;;;;4968312;28;20034;-86
2023/11/12 07:11:44;;;;;;;7.68;4.72;;;4.90;99.90;;;;;;4970518;28;20030;-89
2023/11/12 07:14:09;;;;;;;7.03;3.80;;;4.90;99.90;;;;;;4982903;28;20030;-87
2023/11/12 07:16:35;;;;;;;8.85;4.80;;;4.90;99.90;;;;;;4970934;28;20026;-85
2023/11/12 07:19:02;;;;;;;7.75;4.22;;;5.00;99.90;;;;;;4984472;28;20046;-86
2023/11/12 07:21:30;;;;;;;5.15;3.65;;;5.00;99.90;;;;;;4983905;28;20435;-86
2023/11/12 07:23:57;;;;;;;6.25;3.47;;;5.10;99.90;;;;;;4983390;28;20130;-87
2023/11/12 07:26:24;;;;;;;7.63;4.68;;;5.10;99.90;;;;;;4967205;28;20114;-86
2023/11/12 07:28:51;;;;;;;7.70;4.88;;;5.20;99.90;;;;;;4968484;28;20050;-87
2023/11/12 07:31:17;;;;;;;8.45;4.75;;;5.20;99.90;;;;;;4985862;28;20526;-85
2023/11/12 07:33:44;;;;;;;10.32;4.97;;;5.30;99.90;;;;;;4982252;28;20066;-85
2023/11/12 07:36:12;;;;;;;5.78;4.55;;;5.30;99.90;;;;;;4982744;28;20110;-86
2023/11/12 07:38:38;;;;;;;7.57;4.10;;;5.30;99.90;;;;;;4968884;28;20035;-89
2023/11/12 07:41:07;;;;;;;8.05;4.18;;;5.30;99.90;;;;;;4968922;28;20022;-88
2023/11/12 07:43:34;;;;;;;5.78;4.40;;;5.40;99.90;;;;;;4986410;28;20019;-88
2023/11/12 07:46:00;;;;;;;7.03;4.20;;;5.50;99.90;;;;;;4986907;28;20034;-85
2023/11/12 07:48:26;;;;;;;6.60;4.00;;;5.50;99.90;;;;;;4984968;28;20057;-86
2023/11/12 07:50:52;;;;;;;8.38;4.88;;;5.50;99.90;;;;;;4966901;28;20057;-85
2023/11/12 07:53:18;;;;;;;7.20;4.53;;;5.60;99.90;;;;;;4998715;28;20126;-86
2023/11/12 07:55:44;;;;;;;6.38;4.90;;;5.60;99.90;;;;;;4988619;28;20089;-85
2023/11/12 07:58:09;;;;;;;5.97;4.28;;;5.60;99.90;;;;;;4986498;28;20058;-85
2023/11/12 08:00:35;;;;;;;6.78;3.72;;;5.70;99.90;;;;;;4967270;28;20076;-85
2023/11/12 08:03:01;;;;;;;6.13;4.03;;;5.70;99.90;;;;;;4982267;28;20134;-86
2023/11/12 08:05:27;;;;;;;5.07;3.85;;;5.80;99.90;;;;;;5000725;28;20089;-85
2023/11/12 08:07:52;;;;;;;6.38;3.75;;;5.80;99.90;;;;;;5003838;28;20533;-84
2023/11/12 08:10:19;;;;;;;6.05;3.63;;;5.90;99.90;;;;;;4985947;28;20034;-85
2023/11/12 08:12:45;;;;;;;7.72;3.90;;;5.90;99.90;;;;;;4989825;28;20035;-84
2023/11/12 08:15:12;;;;;;;6.35;3.90;;;6.00;99.90;;;;;;4971713;28;20085;-84
2023/11/12 08:17:39;;;;;;;6.63;5.13;;;6.00;99.90;;;;;;4989468;28;20125;-84
2023/11/12 08:20:05;;;;;;;7.13;5.10;;;6.00;99.90;;;;;;4986812;28;20114;-86
2023/11/12 08:22:31;;;;;;;9.35;6.03;;;6.00;99.90;;;;;;5001182;28;20122;-87
2023/11/12 08:24:57;;;;;;;8.85;5.28;;;6.10;99.90;;;;;;4987121;28;20486;-85
2023/11/12 08:27:23;;;;;;;7.20;4.82;;;6.10;99.90;;;;;;4969570;28;20029;-86
2023/11/12 08:29:49;;;;;;;6.43;4.30;;;6.10;99.90;;;;;;4970674;28;20402;-85
2023/11/12 08:32:15;;;;;;;7.25;4.22;;;6.20;99.90;;;;;;4987637;28;20117;-86
2023/11/12 08:34:41;;;;;;;7.05;5.25;;;6.20;99.90;;;;;;4987357;28;20518;-86
2023/11/12 08:37:07;;;;;;;5.72;4.05;;;6.30;99.90;;;;;;4987502;28;20191;-86
2023/11/12 08:39:33;;;;;;;8.20;4.85;;;6.30;99.90;;;;;;4985776;28;20483;-85
2023/11/12 08:41:59;;;;;;;6.90;4.55;;;6.30;99.90;;;;;;4970046;28;20478;-86
2023/11/12 08:44:25;;;;;;;7.80;4.75;;;6.30;99.90;;;;;;4987876;28;20433;-86
2023/11/12 08:46:51;;;;;;;5.70;3.95;;;6.40;99.90;;;;;;4985296;28;20046;-86
2023/11/12 08:49:17;;;;;;;7.13;4.60;;;6.40;99.90;;;;;;4969494;28;20038;-87
2023/11/12 08:51:43;;;;;;;6.63;4.53;;;6.50;99.90;;;;;;4987723;28;20042;-88
2023/11/12 08:54:09;;;;;;;6.95;5.35;;;6.50;99.90;;;;;;4986453;28;20037;-85
2023/11/12 08:56:35;;;;;;;5.78;3.83;;;6.40;99.90;;;;;;4984345;28;20378;-86
2023/11/12 08:59:03;;;;;;;7.55;4.70;;;6.50;99.90;;;;;;4965709;28;20121;-85
2023/11/12 09:01:33;;;;;;;7.18;4.32;;;6.60;99.90;;;;;;4963087;28;20118;-87
2023/11/12 09:03:59;;;;;;;5.97;4.07;;;6.60;99.90;;;;;;4994048;28;20467;-86
2023/11/12 09:06:25;;;;;;;7.35;3.58;;;6.70;99.90;;;;;;4986636;28;20035;-86
2023/11/12 09:08:51;;;;;;;5.80;3.90;;;6.70;99.90;;;;;;4984404;28;20117;-85
2023/11/12 09:11:16;;;;;;;6.10;4.13;;;6.80;99.90;;;;;;4964972;28;20055;-85
2023/11/12 09:13:42;;;;;;;6.88;3.58;;;6.80;99.90;;;;;;4978258;28;20426;-85
2023/11/12 09:16:08;;;;;;;4.63;3.00;;;6.90;99.90;;;;;;4981444;28;20464;-87
2023/11/12 09:18:34;;;;;;;4.60;2.50;;;7.00;99.90;;;;;;4979836;28;20023;-84
2023/11/12 09:21:02;;;;;;;5.20;3.40;;;7.10;99.90;;;;;;4980896;28;20053;-86
2023/11/12 09:23:28;;;;;;;4.90;2.90;;;7.10;99.90;;;;;;4976082;28;20114;-85
2023/11/12 09:25:53;;;;;;;5.65;2.60;;;7.10;99.90;;;;;;4977955;28;20447;-83
2023/11/12 09:28:19;;;;;;;4.53;2.88;;;7.10;99.90;;;;;;4983689;28;20038;-85
2023/11/12 09:30:45;;;;;;;5.07;3.38;;;7.20;99.90;;;;;;4994872;28;20840;-85
2023/11/12 09:33:12;;;;;;;3.90;2.70;;;7.30;99.90;;;;;;4983778;28;20069;-85
2023/11/12 09:35:39;;;;;;;5.70;3.35;;;7.40;99.90;;;;;;4982740;28;20023;-86
2023/11/12 09:38:05;;;;;;;3.85;2.55;;;7.50;99.90;;;;;;4985705;28;20023;-85
2023/11/12 09:40:31;;;;;;;4.80;3.13;;;7.60;99.90;;;;;;4992917;28;20140;-89
2023/11/12 09:42:57;;;;;;;3.65;2.50;;;7.60;99.90;;;;;;4983516;28;20031;-85
2023/11/12 09:45:25;;;;;;;5.25;2.40;;;7.70;99.90;;;;;;4966806;28;20041;-88
2023/11/12 09:47:57;;;;;;;3.58;2.38;;;7.80;99.90;;;;;;4994457;28;20482;-86
2023/11/12 09:50:25;;;;;;;2.80;1.70;;;7.80;99.90;;;;;;4978080;28;20031;-85
2023/11/12 09:52:55;;;;;;;3.72;2.72;;;7.70;99.90;;;;;;4966103;28;20026;-85
2023/11/12 09:55:21;;;;;;;3.88;2.08;;;7.80;99.90;;;;;;4980613;28;20027;-87
2023/11/12 09:57:48;;;;;;;4.70;3.17;;;8.00;99.90;;;;;;4980859;28;20466;-83
2023/11/12 10:00:16;;;;;;;4.40;2.80;;;7.90;99.90;;;;;;4981478;28;20536;-84
2023/11/12 10:02:44;;;;;;;3.35;1.75;;;7.80;99.90;;;;;;4962203;28;20041;-85
2023/11/12 10:05:11;;;;;;;3.80;1.80;;;7.80;99.90;;;;;;4981456;28;20030;-83
2023/11/12 10:07:38;;;;;;;3.10;1.77;;;7.80;99.90;;;;;;4970799;28;20036;-87
2023/11/12 10:10:22;;;;;;;2.92;1.38;;;7.70;99.90;;;;;;4967366;28;20039;-84
2023/11/12 10:12:49;;;;;;;6.05;2.40;;;7.90;99.90;;;;;;4985081;28;20044;-86
2023/11/12 10:15:27;;;;;;;3.58;2.00;;;7.90;99.90;;;;;;4967771;28;20027;-87
2023/11/12 10:17:55;;;;;;;3.70;2.50;;;7.90;99.90;;;;;;4994698;28;20030;-86
2023/11/12 10:20:25;;;;;;;5.10;2.65;;;7.90;99.90;;;;;;4975265;28;20082;-87
2023/11/12 10:22:52;;;;;;;4.45;2.67;;;7.90;99.90;;;;;;4979558;28;20035;-87
2023/11/12 10:25:41;;;;;;;5.25;2.40;;;8.00;99.90;;;;;;4980756;28;20042;-89
2023/11/12 10:28:09;;;;;;;3.83;2.88;;;7.90;99.90;;;;;;4965236;28;20057;-85
2023/11/12 10:30:37;;;;;;;3.88;2.25;;;8.00;99.90;;;;;;4980074;28;20615;-85
2023/11/12 10:33:23;;;;;;;4.57;2.72;;;8.20;99.90;;;;;;4995450;28;20058;-84
2023/11/12 10:35:50;;;;;;;3.70;2.55;;;8.40;99.90;;;;;;4982113;28;20395;-86
2023/11/12 10:38:17;;;;;;;5.03;2.05;;;8.60;99.90;;;;;;4993428;28;20113;-85
2023/11/12 10:41:00;;;;;;;3.47;2.15;;;8.80;99.90;;;;;;4956193;28;20058;-84
2023/11/12 10:43:29;;;;;;;3.92;2.08;;;9.00;99.90;;;;;;4967677;28;20046;-86
2023/11/12 10:46:00;;;;;;;3.15;2.00;;;8.90;99.90;;;;;;4969103;28;20045;-85
2023/11/12 10:48:39;;;;;;;2.92;1.73;;;9.00;99.90;;;;;;4980312;28;20049;-84
2023/11/12 10:51:12;;;;;;;3.58;1.85;;;9.00;99.90;;;;;;4978687;28;20045;-84
2023/11/12 10:53:41;;;;;;;4.22;1.92;;;9.00;99.90;;;;;;4968042;28;20118;-86
2023/11/12 10:56:06;;;;;;;5.85;2.40;;;9.10;99.90;;;;;;4975846;28;20153;-86
2023/11/12 10:58:33;;;;;;;4.63;2.17;;;8.90;99.90;;;;;;4969129;28;20040;-85
2023/11/12 11:01:01;;;;;;;3.15;1.95;;;8.90;99.90;;;;;;4980101;28;20034;-86
2023/11/12 11:03:28;;;;;;;5.32;2.15;;;9.00;99.90;;;;;;4980082;28;20122;-87
2023/11/12 11:06:02;;;;;;;3.97;2.35;;;9.00;99.90;;;;;;4976863;28;20486;-84
2023/11/12 11:08:34;;;;;;;3.30;1.98;;;9.10;99.90;;;;;;4962069;28;20046;-85
2023/11/12 11:11:02;;;;;;;3.15;1.77;;;9.10;99.90;;;;;;4968830;28;20129;-83
2023/11/12 11:13:28;;;;;;;4.63;2.10;;;9.20;99.90;;;;;;4974584;28;20497;-87
2023/11/12 11:15:58;;;;;;;2.92;2.28;;;9.40;99.90;;;;;;4967034;28;20042;-84
2023/11/12 11:18:30;;;;;;;3.55;2.10;;;9.30;99.90;;;;;;4976983;28;20034;-84
2023/11/12 11:23:41;;;;;;;3.83;2.15;;;9.60;99.90;;;;;;4996203;28;20046;-85
2023/11/12 11:26:30;;;;;;;3.22;2.20;;;9.60;99.90;;;;;;4970426;28;20034;-85
2023/11/12 11:29:10;;;;;;;3.20;1.55;;;9.90;99.90;;;;;;4991436;28;20053;-85
2023/11/12 11:31:48;;;;;;;4.43;2.08;;;9.90;99.90;;;;;;4976432;28;20030;-88
2023/11/12 11:34:15;;;;;;;2.45;1.50;;;10.00;99.90;;;;;;4966567;28;20120;-85
2023/11/12 11:37:01;;;;;;;3.33;1.63;;;10.10;99.90;;;;;;4980913;28;20030;-84
2023/11/12 11:39:28;;;;;;;2.90;1.92;;;10.00;99.90;;;;;;4984245;28;20038;-85
2023/11/12 11:41:58;;;;;;;3.55;2.35;;;9.80;99.90;;;;;;4968667;28;20094;-84
2023/11/12 11:44:40;;;;;;;3.45;2.65;;;9.80;99.90;;;;;;4967014;28;20035;-87
2023/11/12 11:47:16;;;;;;;5.38;3.30;;;9.50;99.90;;;;;;4984153;28;20078;-85
2023/11/12 11:49:45;;;;;;;4.07;2.38;;;9.60;99.90;;;;;;4983781;28;20470;-84
2023/11/12 11:52:36;;;;;;;3.85;2.20;;;9.80;99.90;;;;;;4981515;28;20041;-86
2023/11/12 11:55:10;;;;;;;4.60;2.97;;;9.90;99.90;;;;;;4966286;28;20034;-83
2023/11/12 11:57:46;;;;;;;3.58;2.03;;;9.80;99.90;;;;;;4972383;28;20039;-85
2023/11/12 12:00:15;;;;;;;3.83;1.83;;;9.80;99.90;;;;;;4993515;28;20507;-83
2023/11/12 12:02:43;;;;;;;3.83;1.88;;;9.70;99.90;;;;;;4993184;28;20706;-83
2023/11/12 12:05:10;;;;;;;3.90;1.63;;;9.60;99.90;;;;;;4979492;28;20041;-84
2023/11/12 12:07:39;;;;;;;3.40;1.70;;;9.80;99.90;;;;;;4983860;28;20034;-83
2023/11/12 12:10:05;;;;;;;3.85;1.20;;;9.80;99.90;;;;;;4969979;28;20517;-85
2023/11/12 12:12:31;;;;;;;2.58;1.10;;;9.80;99.90;;;;;;4981084;28;20057;-84
2023/11/12 12:14:57;;;;;;;2.53;1.00;;;9.80;99.90;;;;;;4977977;28;20450;-85
2023/11/12 12:17:23;;;;;;;3.33;0.90;;;9.90;99.90;;;;;;4979681;28;20026;-83
2023/11/12 12:19:55;;;;;;;2.53;0.80;;;9.90;99.90;;;;;;4989124;28;20034;-84
2023/11/12 12:22:25;;;;;;;4.07;1.15;;;9.90;99.90;;;;;;4976075;28;20181;-85
2023/11/12 12:24:53;;;;;;;5.00;1.98;;;9.90;99.90;;;;;;4960227;28;20057;-84
2023/11/12 12:27:20;;;;;;;3.20;1.33;;;9.90;99.90;;;;;;4990055;28;20479;-89
2023/11/12 12:29:46;;;;;;;3.40;1.42;;;9.80;99.90;;;;;;4992649;28;20042;-86
2023/11/12 12:32:14;;;;;;;3.65;1.77;;;9.90;99.90;;;;;;4972904;28;20042;-83
2023/11/12 12:34:44;;;;;;;3.70;1.80;;;9.80;99.90;;;;;;4963176;28;20042;-89
2023/11/12 12:37:11;;;;;;;3.53;2.15;;;9.90;99.90;;;;;;4989754;28;20058;-84
2023/11/12 12:39:52;;;;;;;3.65;2.42;;;9.70;99.90;;;;;;4977855;28;20081;-84
2023/11/12 12:42:20;;;;;;;6.03;4.05;;;9.80;99.90;;;;;;4938319;28;20394;-83
2023/11/12 12:44:51;;;;;;;4.75;2.95;;;9.60;99.90;;;;;;4978435;28;20105;-84
2023/11/12 12:47:36;;;;;;;4.13;2.22;;;9.70;99.90;;;;;;4977739;28;20026;-82
2023/11/12 12:50:15;;;;;;;3.05;2.05;;;9.70;99.90;;;;;;4975235;28;20066;-86
2023/11/12 12:52:44;;;;;;;2.78;1.52;;;9.70;99.90;;;;;;4965040;28;20046;-82
2023/11/12 12:55:11;;;;;;;3.70;1.90;;;9.50;99.90;;;;;;4979502;28;20062;-83
2023/11/12 12:57:38;;;;;;;3.05;1.52;;;9.30;99.90;;;;;;4977970;28;20050;-87
2023/11/12 13:00:11;;;;;;;2.45;1.35;;;9.10;99.90;;;;;;4979778;28;20031;-87